Terminal Aerodrome Forecast
Issued by NWS

Home | Current Version | Previous Version | Text Only | Print | Product List | Glossary On
Versions: 1 2 3 4 5 6 7 8 9 10 11 12 13 14 15 16 17 18 19 20 21 22 23 24 25 26 27 28 29 30 31 32 33 34 35 36 37 38 39
000
FTUS45 KBOU 221131
TAFAPA
TAF
KAPA 221131Z 2212/2312 34006KT P6SM SCT080 BKN120
     FM221900 33014G20KT P6SM VCSH SCT060 BKN070
     FM222000 34014G25KT P6SM VCSH SCT050 BKN070 PROB30 2221/2303
      3SM -SHSN BKN040
     FM230900 34018G26KT P6SM SCT060 BKN090=

USA.gov is the U.S. government's official web portal to all federal, state and local government web resources and services.